Time;durP1;ratioP1;P1;durP2;ratioP2;P2;SDS_P1;SDS_P2;PMS_P1;PMS_P2;Temp;Humidity;BMP_temperature;BMP_pressure;BME280_temperature;BME280_humidity;BME280_pressure;Samples;Min_cycle;Max_cycle;Signal;HPM_P1;HPM_P2
2024/03/09 00:01:15;;;;;;;20.25;11.13;;;;;;;6.21;85.61;100121.13;5035569;28;20572;-38
2024/03/09 00:03:40;;;;;;;19.38;10.07;;;;;;;5.92;85.95;100121.56;5050208;28;20077;-40
2024/03/09 00:06:07;;;;;;;19.33;10.90;;;;;;;6.32;85.00;100119.97;5050583;28;20031;-38
2024/03/09 00:08:34;;;;;;;18.02;10.25;;;;;;;6.12;85.32;100119.47;5050461;28;20031;-40
2024/03/09 00:11:01;;;;;;;20.92;10.75;;;;;;;5.95;86.69;100113.34;5050152;28;20068;-39
2024/03/09 00:13:27;;;;;;;18.48;10.52;;;;;;;5.90;87.38;100102.41;5050628;28;20013;-40
2024/03/09 00:15:54;;;;;;;19.75;11.02;;;;;;;6.06;86.63;100105.09;5050327;28;20013;-40
2024/03/09 00:18:20;;;;;;;22.77;11.23;;;;;;;6.22;86.08;100106.88;5050251;28;20077;-40
2024/03/09 00:20:47;;;;;;;19.58;11.02;;;;;;;6.33;85.25;100103.09;5050489;28;20025;-26
2024/03/09 00:23:13;;;;;;;19.85;11.00;;;;;;;6.70;84.03;100104.38;5050210;28;20025;-26
2024/03/09 00:25:40;;;;;;;19.88;11.43;;;;;;;6.58;84.13;100109.16;5049380;28;20140;-27
2024/03/09 00:28:06;;;;;;;20.17;11.38;;;;;;;6.26;86.20;100112.66;5050582;28;20036;-26
2024/03/09 00:30:31;;;;;;;20.73;11.45;;;;;;;6.40;85.89;100119.13;5050305;28;20433;-27
2024/03/09 00:33:05;;;;;;;21.90;11.90;;;;;;;6.12;87.69;100111.53;5050403;28;20017;-27
2024/03/09 00:35:31;;;;;;;21.17;11.98;;;;;;;6.07;88.36;100114.69;5049931;28;20029;-27
2024/03/09 00:37:57;;;;;;;21.05;11.65;;;;;;;6.24;86.99;100117.31;5049861;28;20020;-27
2024/03/09 00:40:28;;;;;;;24.23;12.30;;;;;;;6.24;87.46;100117.31;5050062;28;20025;-27
2024/03/09 00:42:55;;;;;;;24.77;12.65;;;;;;;6.29;87.52;100108.88;5050303;28;20104;-27
2024/03/09 00:45:21;;;;;;;20.83;12.15;;;;;;;6.13;87.62;100107.06;5050091;28;20459;-28
2024/03/09 00:47:47;;;;;;;22.00;11.95;;;;;;;6.09;87.99;100105.75;5049922;28;20037;-28
2024/03/09 00:50:15;;;;;;;23.35;11.63;;;;;;;5.94;88.71;100085.25;5049527;28;20048;-28
2024/03/09 00:52:41;;;;;;;22.42;11.32;;;;;;;5.99;88.79;100098.00;5049654;28;20064;-26
2024/03/09 00:55:16;;;;;;;22.40;12.15;;;;;;;5.82;90.18;100105.84;5049617;28;20049;-26
2024/03/09 00:57:42;;;;;;;22.05;12.65;;;;;;;6.03;89.30;100100.13;5049976;28;20107;-26
2024/03/09 01:00:15;;;;;;;20.55;12.00;;;;;;;6.03;88.97;100099.31;5049436;28;20025;-26
2024/03/09 01:02:43;;;;;;;23.67;12.75;;;;;;;5.99;88.96;100092.69;5049628;28;20133;-25
2024/03/09 01:05:09;;;;;;;25.55;12.65;;;;;;;5.98;89.00;100096.34;5043844;28;20033;-26
2024/03/09 01:07:35;;;;;;;23.17;13.15;;;;;;;6.07;88.31;100100.63;5045586;28;20060;-26
2024/03/09 01:10:01;;;;;;;24.40;13.02;;;;;;;6.01;88.68;100085.44;5049699;28;20095;-26
2024/03/09 01:12:28;;;;;;;23.95;13.23;;;;;;;6.43;87.25;100098.44;5049345;28;20044;-26
2024/03/09 01:14:54;;;;;;;25.05;13.10;;;;;;;5.93;88.33;100095.97;5049633;28;20059;-25
2024/03/09 01:17:23;;;;;;;24.55;12.80;;;;;;;6.04;88.62;100080.66;5049533;28;20087;-26
2024/03/09 01:19:50;;;;;;;20.83;12.20;;;;;;;5.87;89.18;100089.53;5049340;28;20107;-25
2024/03/09 01:22:17;;;;;;;24.85;12.88;;;;;;;5.94;88.02;100085.25;5049888;28;20025;-25
2024/03/09 01:24:43;;;;;;;21.90;12.02;;;;;;;5.78;89.21;100080.78;5048884;28;20061;-26
2024/03/09 01:27:08;;;;;;;22.08;12.50;;;;;;;5.80;90.43;100088.53;5048713;28;20083;-26
2024/03/09 01:29:34;;;;;;;22.58;11.95;;;;;;;5.88;90.01;100091.16;5048992;28;20125;-26
2024/03/09 01:32:04;;;;;;;25.95;12.48;;;;;;;5.85;89.74;100089.69;5044879;28;20087;-26
2024/03/09 01:34:31;;;;;;;23.70;13.13;;;;;;;6.11;88.82;100099.31;5029898;28;20026;-25
2024/03/09 01:36:57;;;;;;;25.10;13.18;;;;;;;5.80;89.18;100099.91;5029208;28;20079;-26
2024/03/09 01:39:25;;;;;;;24.10;13.02;;;;;;;5.94;89.63;100095.81;5033309;28;20440;-27
2024/03/09 01:41:51;;;;;;;25.77;12.73;;;;;;;5.82;90.68;100091.84;5033600;28;20033;-26
2024/03/09 01:44:17;;;;;;;23.27;12.68;;;;;;;5.77;90.02;100096.78;5032785;28;20035;-26
2024/03/09 01:46:44;;;;;;;25.85;12.75;;;;;;;6.14;88.66;100093.69;5033437;28;20044;-26
2024/03/09 01:49:10;;;;;;;27.02;12.77;;;;;;;5.92;88.87;100096.94;5037784;28;20082;-26
2024/03/09 01:51:36;;;;;;;25.05;12.45;;;;;;;6.12;88.20;100089.56;5047827;28;20014;-26
2024/03/09 01:54:10;;;;;;;25.33;13.80;;;;;;;6.17;87.57;100074.03;5032966;28;20112;-25
2024/03/09 01:56:40;;;;;;;23.98;12.85;;;;;;;6.24;86.95;100097.00;5033140;28;20025;-26
2024/03/09 01:59:10;;;;;;;23.33;12.70;;;;;;;6.11;87.06;100099.31;5032706;28;20022;-26
2024/03/09 02:01:36;;;;;;;23.85;12.52;;;;;;;6.20;86.79;100100.94;5033174;28;20091;-26
2024/03/09 02:04:04;;;;;;;23.08;12.73;;;;;;;6.34;86.20;100112.69;5032474;28;20040;-25
2024/03/09 02:06:31;;;;;;;26.65;13.77;;;;;;;6.06;87.17;100091.06;5032193;28;20531;-25
2024/03/09 02:08:57;;;;;;;26.27;13.50;;;;;;;6.10;88.00;100097.66;5032654;28;20026;-26
2024/03/09 02:11:24;;;;;;;25.23;13.63;;;;;;;6.43;85.48;100100.25;5032790;28;20109;-26
2024/03/09 02:13:55;;;;;;;26.80;13.98;;;;;;;6.52;84.39;100095.81;5032451;28;20040;-26
2024/03/09 02:16:21;;;;;;;25.67;13.35;;;;;;;6.29;85.83;100101.78;5032893;28;20029;-26
2024/03/09 02:18:48;;;;;;;24.13;13.35;;;;;;;6.32;85.87;100100.59;5033175;28;20122;-27
2024/03/09 02:21:14;;;;;;;26.35;13.43;;;;;;;6.29;85.86;100106.25;5033427;28;20075;-26
2024/03/09 02:23:42;;;;;;;24.27;13.35;;;;;;;6.17;86.04;100095.16;5034212;28;20060;-27
2024/03/09 02:26:08;;;;;;;27.42;13.85;;;;;;;6.22;86.32;100096.31;5032935;28;20057;-27
2024/03/09 02:28:34;;;;;;;26.00;13.88;;;;;;;6.22;85.86;100100.78;5033404;28;20052;-27
2024/03/09 02:31:00;;;;;;;21.90;12.43;;;;;;;6.07;86.43;100098.81;5033496;28;20021;-27
2024/03/09 02:33:26;;;;;;;22.88;12.60;;;;;;;6.12;86.49;100100.16;5033251;28;20258;-26
2024/03/09 02:35:53;;;;;;;23.48;13.05;;;;;;;6.35;85.67;100095.81;5033457;28;20030;-27
2024/03/09 02:38:20;;;;;;;23.73;13.27;;;;;;;6.24;85.61;100093.50;5033321;28;20037;-27
2024/03/09 02:40:46;;;;;;;27.35;13.88;;;;;;;6.38;85.37;100098.13;5032543;28;20141;-23
2024/03/09 02:43:12;;;;;;;25.45;13.18;;;;;;;6.19;85.95;100096.66;5032403;28;20133;-26
2024/03/09 02:45:39;;;;;;;25.05;13.32;;;;;;;6.35;84.93;100095.00;5032681;28;20347;-27
2024/03/09 02:48:04;;;;;;;26.20;13.82;;;;;;;6.41;85.04;100084.56;5046639;28;20412;-25
2024/03/09 02:50:31;;;;;;;28.10;12.95;;;;;;;6.27;86.36;100085.25;5051785;28;20489;-23
2024/03/09 02:52:57;;;;;;;26.58;13.63;;;;;;;6.17;85.86;100082.81;5052835;28;20092;-25
2024/03/09 02:55:23;;;;;;;23.70;12.95;;;;;;;6.08;86.53;100089.06;5044632;28;20513;-26
2024/03/09 02:57:50;;;;;;;29.20;12.85;;;;;;;5.83;87.76;100096.97;5033188;28;20025;-26
2024/03/09 03:00:21;;;;;;;27.67;14.27;;;;;;;6.03;86.92;100086.91;5031822;28;20087;-26
2024/03/09 03:05:30;;;;;;;23.02;12.48;;;;;;;5.86;88.29;100086.06;5032154;28;20456;-25
2024/03/09 03:07:55;;;;;;;25.45;12.80;;;;;;;5.91;87.30;100076.81;5031801;28;20033;-26
2024/03/09 03:10:21;;;;;;;25.52;13.15;;;;;;;6.00;87.61;100086.44;5031745;28;20083;-26
2024/03/09 03:12:46;;;;;;;24.83;12.82;;;;;;;5.95;87.99;100073.72;5032118;28;20033;-26
2024/03/09 03:15:11;;;;;;;28.08;14.15;;;;;;;5.88;88.50;100073.53;5032369;28;20457;-26
2024/03/09 03:17:37;;;;;;;26.58;13.48;;;;;;;5.97;88.74;100078.84;5032408;28;20371;-27
2024/03/09 03:20:07;;;;;;;26.75;13.57;;;;;;;6.07;87.63;100076.84;5031966;28;20026;-27
2024/03/09 03:22:32;;;;;;;25.60;13.00;;;;;;;5.98;87.82;100081.31;5032161;28;20100;-27
2024/03/09 03:24:58;;;;;;;29.60;14.35;;;;;;;6.19;86.78;100083.47;5031652;28;20116;-27
2024/03/09 03:27:23;;;;;;;26.60;14.48;;;;;;;6.33;86.58;100091.69;5031903;28;20129;-27
2024/03/09 03:29:48;;;;;;;27.65;14.30;;;;;;;6.30;85.81;100087.56;5032025;28;20041;-28
2024/03/09 03:32:17;;;;;;;27.95;13.65;;;;;;;5.77;88.52;100096.78;5031895;28;20029;-26
2024/03/09 03:34:43;;;;;;;25.53;14.27;;;;;;;5.92;88.76;100089.03;5031928;28;20127;-27
2024/03/09 03:37:11;;;;;;;26.98;14.23;;;;;;;5.99;88.55;100092.69;5032151;28;20327;-26
2024/03/09 03:39:38;;;;;;;28.77;14.05;;;;;;;5.93;88.31;100085.41;5031957;28;20036;-28
2024/03/09 03:42:04;;;;;;;28.30;14.43;;;;;;;5.97;88.78;100087.56;5031522;28;20163;-25
2024/03/09 03:44:32;;;;;;;27.83;14.40;;;;;;;5.65;89.79;100097.13;5031322;28;20120;-25
2024/03/09 03:46:57;;;;;;;30.48;14.00;;;;;;;5.60;89.87;100086.22;5031660;28;20025;-27
2024/03/09 03:49:22;;;;;;;28.73;14.23;;;;;;;5.76;89.85;100093.31;5031670;28;20393;-26
2024/03/09 03:51:48;;;;;;;25.95;14.07;;;;;;;5.77;89.24;100094.97;5031730;28;20025;-26
2024/03/09 03:54:15;;;;;;;27.58;14.10;;;;;;;5.62;89.47;100083.41;5031399;28;20109;-27
2024/03/09 03:56:41;;;;;;;26.77;14.20;;;;;;;5.77;88.81;100087.06;5031697;28;20045;-27
2024/03/09 03:59:06;;;;;;;29.25;13.85;;;;;;;5.49;90.03;100094.44;5031053;28;20032;-27
2024/03/09 04:01:32;;;;;;;24.05;13.65;;;;;;;5.67;89.30;100087.22;5030694;28;20037;-27
2024/03/09 04:03:58;;;;;;;26.55;13.93;;;;;;;5.55;89.28;100088.50;5031043;28;20108;-27
2024/03/09 04:06:23;;;;;;;27.98;15.13;;;;;;;5.41;90.79;100100.53;5030996;28;20022;-27
2024/03/09 04:08:49;;;;;;;27.95;14.32;;;;;;;5.64;89.71;100102.56;5031022;28;20033;-26
2024/03/09 04:11:15;;;;;;;28.90;15.20;;;;;;;5.76;88.75;100101.25;5031415;28;20075;-27
2024/03/09 04:13:41;;;;;;;29.58;15.25;;;;;;;5.74;88.50;100100.56;5031268;28;20446;-27
2024/03/09 04:16:06;;;;;;;29.55;14.23;;;;;;;5.73;88.08;100111.28;5031156;28;20026;-27
2024/03/09 04:18:33;;;;;;;27.55;14.63;;;;;;;5.78;88.33;100115.09;5031056;28;20116;-27
2024/03/09 04:21:02;;;;;;;28.67;14.20;;;;;;;5.79;88.08;100111.50;5030989;28;20495;-27
2024/03/09 04:23:27;;;;;;;30.00;15.10;;;;;;;5.66;88.98;100105.84;5030531;28;20456;-26
2024/03/09 04:25:53;;;;;;;30.05;14.23;;;;;;;5.73;88.29;100112.16;5030777;28;20045;-26
2024/03/09 04:28:21;;;;;;;28.80;14.60;;;;;;;5.79;87.87;100106.22;5031211;28;20533;-27
2024/03/09 04:30:48;;;;;;;28.25;15.18;;;;;;;5.99;86.45;100101.44;5031235;28;20025;-27
2024/03/09 04:33:15;;;;;;;27.75;14.52;;;;;;;5.94;86.23;100103.75;5030931;28;20438;-26
2024/03/09 04:35:41;;;;;;;31.80;15.43;;;;;;;6.12;86.18;100110.72;5031239;28;20025;-27
2024/03/09 04:38:07;;;;;;;33.65;17.10;;;;;;;5.86;86.88;100112.50;5030953;28;20116;-26
2024/03/09 04:40:35;;;;;;;31.23;15.07;;;;;;;5.84;87.35;100113.63;5030312;28;20022;-25
2024/03/09 04:43:04;;;;;;;32.22;15.95;;;;;;;6.05;86.90;100114.03;5030790;28;20026;-26
2024/03/09 04:45:32;;;;;;;30.02;16.55;;;;;;;5.82;86.54;100119.06;5030730;28;20030;-26
2024/03/09 04:47:59;;;;;;;36.92;19.02;;;;;;;5.98;86.39;100110.38;5030589;28;20103;-26
2024/03/09 04:50:28;;;;;;;32.03;14.73;;;;;;;5.74;87.13;100112.97;5030471;28;20028;-26
2024/03/09 04:52:56;;;;;;;28.65;14.07;;;;;;;5.99;86.18;100119.13;5030630;28;20112;-26
2024/03/09 04:55:27;;;;;;;28.35;14.82;;;;;;;6.03;86.50;100120.44;5030417;28;20485;-26
2024/03/09 04:57:58;;;;;;;26.02;13.65;;;;;;;6.00;85.51;100124.25;5030110;28;20108;-26
2024/03/09 05:00:28;;;;;;;27.92;14.90;;;;;;;6.36;84.77;100128.34;5030219;28;20025;-27
2024/03/09 05:02:54;;;;;;;31.02;15.25;;;;;;;6.03;85.53;100126.53;5030678;28;20053;-26
2024/03/09 05:05:20;;;;;;;31.60;15.65;;;;;;;6.04;85.71;100119.47;5029100;28;20131;-27
2024/03/09 05:07:49;;;;;;;30.65;15.57;;;;;;;6.04;86.50;100130.03;5030460;28;20060;-26
2024/03/09 05:10:17;;;;;;;31.63;15.30;;;;;;;5.97;86.77;100139.59;5030706;28;20025;-26
2024/03/09 05:12:56;;;;;;;28.80;14.45;;;;;;;5.92;86.74;100133.94;5031957;28;20068;-26
2024/03/09 05:15:29;;;;;;;30.90;15.38;;;;;;;5.98;87.08;100130.69;5034821;28;20531;-26
2024/03/09 05:17:56;;;;;;;30.60;15.15;;;;;;;5.95;87.11;100126.53;5034448;28;20108;-26
2024/03/09 05:20:24;;;;;;;30.00;15.57;;;;;;;6.28;85.99;100139.75;5034675;28;20040;-26
2024/03/09 05:22:54;;;;;;;31.27;16.00;;;;;;;6.15;87.09;100136.78;5034566;28;20476;-26
2024/03/09 05:25:23;;;;;;;35.13;16.98;;;;;;;6.19;86.50;100136.31;5034363;28;20292;-27
2024/03/09 05:27:53;;;;;;;32.70;16.13;;;;;;;6.23;86.22;100142.09;5034622;28;20044;-27
2024/03/09 05:30:24;;;;;;;30.45;15.52;;;;;;;6.09;85.43;100135.63;5034386;28;20056;-24
2024/03/09 05:32:53;;;;;;;34.05;16.00;;;;;;;6.25;85.38;100142.75;5034391;28;20091;-27
2024/03/09 05:35:26;;;;;;;28.53;14.97;;;;;;;6.25;85.28;100142.75;5034361;28;20045;-27
2024/03/09 05:37:52;;;;;;;32.55;16.05;;;;;;;6.48;84.94;100142.91;5034354;28;20038;-27
2024/03/09 05:40:18;;;;;;;31.98;15.38;;;;;;;6.48;84.75;100145.53;5032922;28;20431;-26
2024/03/09 05:42:45;;;;;;;31.20;15.70;;;;;;;6.40;85.26;100145.56;5034591;28;20032;-25
2024/03/09 05:45:23;;;;;;;30.10;16.55;;;;;;;6.46;83.83;100143.06;5034567;28;20166;-26
2024/03/09 05:47:55;;;;;;;32.92;15.90;;;;;;;6.42;84.02;100141.75;5034472;28;20033;-28
2024/03/09 05:50:30;;;;;;;31.55;15.80;;;;;;;6.12;84.86;100132.66;5034156;28;20398;-27
2024/03/09 05:52:58;;;;;;;29.75;15.43;;;;;;;6.43;84.28;100142.56;5034097;28;20036;-28
2024/03/09 05:55:25;;;;;;;30.05;15.00;;;;;;;6.30;84.28;100140.41;5033876;28;20096;-26
2024/03/09 05:57:52;;;;;;;31.73;14.90;;;;;;;6.12;85.30;100142.41;5033749;28;20030;-27
2024/03/09 06:00:19;;;;;;;27.33;14.65;;;;;;;6.25;86.18;100143.56;5033709;28;20375;-27
2024/03/09 06:02:48;;;;;;;32.13;15.60;;;;;;;6.32;84.98;100154.31;5034062;28;20114;-27
2024/03/09 06:05:14;;;;;;;34.00;15.95;;;;;;;6.50;83.73;100151.50;5033935;28;20029;-25
2024/03/09 06:07:42;;;;;;;31.52;16.00;;;;;;;6.53;83.90;100151.16;5034296;28;20045;-27
2024/03/09 06:10:09;;;;;;;33.70;15.95;;;;;;;6.71;83.82;100155.44;5033696;28;20025;-27
2024/03/09 06:12:35;;;;;;;31.95;15.65;;;;;;;6.36;84.59;100157.44;5032916;28;20053;-25
2024/03/09 06:15:05;;;;;;;28.30;14.57;;;;;;;6.32;84.58;100166.69;5033286;28;20720;-26
2024/03/09 06:17:31;;;;;;;30.30;14.88;;;;;;;6.02;85.63;100161.91;5033898;28;20060;-26
2024/03/09 06:19:56;;;;;;;31.73;14.52;;;;;;;5.98;86.49;100155.28;5034399;28;20060;-27
2024/03/09 06:22:21;;;;;;;29.27;14.60;;;;;;;6.35;86.04;100163.72;5033800;28;20056;-26
2024/03/09 06:24:47;;;;;;;30.52;15.77;;;;;;;6.42;84.94;100159.44;5033316;28;20025;-26
2024/03/09 06:27:13;;;;;;;31.15;17.08;;;;;;;6.67;83.50;100165.53;5033054;28;20115;-26
2024/03/09 06:29:41;;;;;;;31.35;15.48;;;;;;;6.47;84.69;100170.31;5033522;28;20037;-26
2024/03/09 06:32:06;;;;;;;36.08;17.52;;;;;;;6.59;84.99;100171.66;5033381;28;20489;-27
2024/03/09 06:34:32;;;;;;;33.42;17.02;;;;;;;6.68;84.30;100171.63;5033370;28;20026;-27
2024/03/09 06:36:59;;;;;;;31.27;15.60;;;;;;;6.78;83.73;100178.41;5032069;28;20029;-27
2024/03/09 06:39:30;;;;;;;31.95;14.98;;;;;;;6.88;83.20;100167.63;5033504;28;20029;-27
2024/03/09 06:41:57;;;;;;;31.63;15.00;;;;;;;6.70;82.77;100175.78;5033284;28;20025;-26
2024/03/09 06:44:23;;;;;;;29.55;15.25;;;;;;;6.88;83.57;100182.69;5033525;28;20037;-27
2024/03/09 06:46:51;;;;;;;30.55;14.60;;;;;;;6.68;83.53;100168.97;5033006;28;20036;-28
2024/03/09 06:49:17;;;;;;;30.70;15.75;;;;;;;6.70;84.43;100188.16;5033188;28;20508;-27
2024/03/09 06:51:43;;;;;;;31.85;15.77;;;;;;;7.04;83.16;100172.03;5038521;28;20036;-27
2024/03/09 06:54:11;;;;;;;29.10;15.63;;;;;;;7.29;87.68;100180.75;5052689;28;20050;-27
2024/03/09 06:56:36;;;;;;;33.78;15.85;;;;;;;7.34;81.15;100177.56;5052530;28;20021;-26
2024/03/09 06:59:03;;;;;;;34.88;16.17;;;;;;;7.36;81.38;100176.41;5052693;28;20078;-26
2024/03/09 07:01:30;;;;;;;31.77;15.57;;;;;;;7.01;82.33;100178.50;5052363;28;20029;-27
2024/03/09 07:04:00;;;;;;;33.42;15.57;;;;;;;7.01;83.15;100177.69;5051499;28;20393;-27
2024/03/09 07:06:26;;;;;;;36.72;16.83;;;;;;;7.27;81.77;100185.38;5051430;28;20041;-27
2024/03/09 07:08:51;;;;;;;40.47;18.17;;;;;;;7.37;82.16;100177.25;5052208;28;20051;-27
2024/03/09 07:11:17;;;;;;;31.98;16.85;;;;;;;7.54;81.15;100191.22;5051848;28;20119;-26
2024/03/09 07:13:43;;;;;;;33.13;16.33;;;;;;;7.75;80.27;100191.47;5052007;28;20124;-27
2024/03/09 07:16:08;;;;;;;33.45;17.02;;;;;;;7.89;78.93;100194.38;5052672;28;20030;-26
2024/03/09 07:18:36;;;;;;;37.38;16.67;;;;;;;7.97;78.58;100196.97;5052655;28;20039;-26
2024/03/09 07:21:05;;;;;;;31.08;15.48;;;;;;;8.08;78.33;100191.25;5052565;28;20513;-28
2024/03/09 07:23:31;;;;;;;35.28;16.52;;;;;;;8.31;77.90;100183.28;5052430;28;20020;-27
2024/03/09 07:25:56;;;;;;;35.88;16.65;;;;;;;8.23;77.48;100184.19;5051856;28;20106;-29
2024/03/09 07:28:22;;;;;;;37.22;16.05;;;;;;;8.33;78.55;100185.78;5051590;28;20465;-28
2024/03/09 07:30:47;;;;;;;30.55;15.82;;;;;;;8.51;77.20;100174.88;5051810;28;20033;-27
2024/03/09 07:33:12;;;;;;;32.17;15.80;;;;;;;8.68;77.10;100184.34;5051692;28;20377;-27
2024/03/09 07:35:38;;;;;;;31.77;15.77;;;;;;;8.58;76.93;100179.28;5051098;28;20025;-26
2024/03/09 07:38:04;;;;;;;37.55;16.10;;;;;;;8.83;75.83;100178.22;5035222;28;20033;-27
2024/03/09 07:40:31;;;;;;;31.73;16.38;;;;;;;9.02;74.58;100183.00;5040656;28;20455;-27
2024/03/09 07:42:57;;;;;;;32.90;16.08;;;;;;;8.97;73.84;100172.13;5043875;28;20318;-27
2024/03/09 07:45:25;;;;;;;31.63;16.08;;;;;;;8.91;74.84;100167.50;5038526;28;20036;-26
2024/03/09 07:47:50;;;;;;;33.63;17.10;;;;;;;9.51;73.03;100168.31;5041062;28;20037;-28
2024/03/09 07:50:21;;;;;;;31.33;16.08;;;;;;;9.57;71.83;100181.66;5044679;28;20390;-27
2024/03/09 07:52:55;;;;;;;32.47;15.55;;;;;;;9.28;71.93;100176.41;5043275;28;20029;-28
2024/03/09 07:55:23;;;;;;;32.45;15.43;;;;;;;9.09;72.22;100180.44;5051121;28;20094;-27
2024/03/09 07:57:49;;;;;;;28.70;15.80;;;;;;;9.26;71.33;100173.94;5050357;28;20101;-27
2024/03/09 08:00:22;;;;;;;32.42;15.88;;;;;;;9.29;71.35;100175.38;5051202;28;20029;-27
2024/03/09 08:02:49;;;;;;;26.02;13.73;;;;;;;8.91;72.57;100178.13;5050838;28;20040;-27
2024/03/09 08:05:16;;;;;;;34.75;15.07;;;;;;;8.91;73.11;100178.97;5051064;28;20021;-27
2024/03/09 08:07:43;;;;;;;29.92;15.77;;;;;;;9.30;71.30;100177.88;5051070;28;20108;-26
2024/03/09 08:10:12;;;;;;;30.83;14.32;;;;;;;9.42;72.36;100172.91;5050858;28;20070;-26
2024/03/09 08:12:38;;;;;;;;;;;;;;;9.82;71.29;100177.88;5031494;28;20495;-27
2024/03/09 08:15:04;;;;;;;23.25;12.93;;;;;;;9.52;70.42;100156.66;5045261;28;20000;-27
2024/03/09 08:17:31;;;;;;;22.50;13.25;;;;;;;9.78;69.04;100172.91;5042460;28;20029;-27
2024/03/09 08:19:59;;;;;;;26.73;14.05;;;;;;;9.97;69.82;100179.47;5050521;28;20112;-27
2024/03/09 08:22:24;;;;;;;23.80;13.50;;;;;;;10.13;68.66;100185.56;5050370;28;20028;-27
2024/03/09 08:24:51;;;;;;;26.33;13.85;;;;;;;10.06;68.65;100188.16;5034543;28;20040;-28
2024/03/09 08:27:17;;;;;;;27.58;14.25;;;;;;;10.12;68.81;100189.22;5042804;28;20049;-27
2024/03/09 08:29:44;;;;;;;25.23;13.82;;;;;;;10.42;67.08;100183.81;5043483;28;20425;-27
2024/03/09 08:32:10;;;;;;;28.65;14.68;;;;;;;9.75;68.73;100177.81;5047761;28;20102;-27
2024/03/09 08:34:36;;;;;;;26.50;13.80;;;;;;;10.07;68.06;100183.66;5050959;28;20040;-30
2024/03/09 08:37:08;;;;;;;34.83;16.00;;;;;;;10.52;73.12;100192.28;5050535;28;20169;-27
2024/03/09 08:39:37;;;;;;;34.65;18.45;;;;;;;10.99;72.60;100187.31;5050301;28;20025;-28
2024/03/09 08:42:06;;;;;;;32.47;17.75;;;;;;;11.58;72.33;100181.47;5040164;28;20028;-27
2024/03/09 08:44:34;;;;;;;31.48;16.67;;;;;;;11.91;69.42;100172.75;5045722;28;20025;-27
2024/03/09 08:46:59;;;;;;;28.77;14.23;;;;;;;12.46;69.78;100178.78;5049266;28;20029;-28
2024/03/09 08:49:25;;;;;;;24.95;13.65;;;;;;;12.57;66.00;100180.03;5050578;28;20070;-26
2024/03/09 08:51:52;;;;;;;25.27;13.50;;;;;;;13.25;63.79;100178.88;5049852;28;20028;-28
2024/03/09 08:54:18;;;;;;;23.27;13.38;;;;;;;12.98;63.96;100172.78;5048773;28;20365;-27
2024/03/09 08:56:43;;;;;;;24.92;14.57;;;;;;;12.88;65.50;100182.03;5049056;28;20457;-28
2024/03/09 08:59:09;;;;;;;27.80;15.20;;;;;;;12.27;63.05;100177.75;5049819;28;20032;-26
2024/03/09 09:01:35;;;;;;;31.48;15.77;;;;;;;11.96;62.91;100175.66;5050136;28;20493;-28
2024/03/09 09:04:03;;;;;;;28.77;15.52;;;;;;;12.08;62.25;100176.69;5050246;28;20100;-27
2024/03/09 09:06:30;;;;;;;28.88;15.55;;;;;;;12.59;65.92;100180.63;5050271;28;20100;-27
2024/03/09 09:08:58;;;;;;;27.17;16.42;;;;;;;12.89;60.41;100172.19;5050377;28;20127;-27
2024/03/09 09:11:24;;;;;;;27.08;14.73;;;;;;;12.69;58.30;100170.34;5050630;28;20029;-28
2024/03/09 09:13:49;;;;;;;28.58;15.90;;;;;;;12.01;61.36;100173.19;5043611;28;20026;-28
2024/03/09 09:16:18;;;;;;;31.15;15.55;;;;;;;11.35;63.11;100171.94;5044006;28;20446;-27
2024/03/09 09:18:43;;;;;;;32.30;15.90;;;;;;;11.60;60.97;100166.09;5038074;28;20033;-27
2024/03/09 09:21:09;;;;;;;32.47;15.45;;;;;;;10.44;66.30;100169.28;5044611;28;20028;-27
2024/03/09 09:23:34;;;;;;;28.20;15.60;;;;;;;10.58;65.63;100164.91;5039703;28;20020;-28
2024/03/09 09:26:01;;;;;;;37.42;18.05;;;;;;;10.82;65.52;100166.31;5048376;28;20045;-27
2024/03/09 09:28:26;;;;;;;31.55;15.52;;;;;;;11.15;63.51;100160.34;5048401;28;20492;-27
2024/03/09 09:30:53;;;;;;;26.50;14.25;;;;;;;10.87;64.07;100153.25;5040007;28;20033;-28
2024/03/09 09:33:19;;;;;;;27.88;14.30;;;;;;;10.85;64.14;100155.28;5046746;28;20040;-27
2024/03/09 09:35:46;;;;;;;26.10;14.52;;;;;;;10.82;65.23;100166.31;5037821;28;20489;-26
2024/03/09 09:38:17;;;;;;;31.27;15.35;;;;;;;10.75;66.59;100160.91;5046857;28;20151;-27
2024/03/09 09:40:45;;;;;;;30.45;15.00;;;;;;;10.88;65.66;100167.38;5048400;28;20033;-27
2024/03/09 09:43:11;;;;;;;29.95;15.50;;;;;;;10.48;65.02;100172.41;5048693;28;20393;-27
2024/03/09 09:45:42;;;;;;;26.30;13.75;;;;;;;10.78;63.02;100159.72;5049089;28;20044;-28
2024/03/09 09:48:10;;;;;;;24.73;12.75;;;;;;;11.11;63.31;100157.25;5036712;28;20043;-27
2024/03/09 09:50:36;;;;;;;22.45;12.60;;;;;;;11.63;60.45;100152.38;5048917;28;20033;-27
2024/03/09 09:53:07;;;;;;;19.80;11.80;;;;;;;11.25;61.37;100155.50;5049299;28;20120;-27
2024/03/09 09:55:35;;;;;;;19.02;11.68;;;;;;;11.30;61.04;100165.56;5049313;28;20075;-28
2024/03/09 09:58:00;;;;;;;20.58;11.93;;;;;;;11.62;59.44;100171.22;5049475;28;20032;-28
2024/03/09 10:00:26;;;;;;;18.80;10.75;;;;;;;11.17;59.47;100162.81;5052762;28;20028;-29
2024/03/09 10:02:58;;;;;;;19.10;10.95;;;;;;;10.88;60.75;100170.84;5053011;28;20049;-27
2024/03/09 10:05:26;;;;;;;17.98;11.02;;;;;;;10.69;62.71;100176.84;5052982;28;20032;-26
2024/03/09 10:08:07;;;;;;;20.90;11.80;;;;;;;10.99;61.02;100172.16;5052753;28;20441;-27
2024/03/09 10:10:36;;;;;;;18.27;11.25;;;;;;;10.52;62.02;100171.81;5052482;28;20029;-29
2024/03/09 10:13:06;;;;;;;22.65;12.40;;;;;;;10.56;62.94;100170.41;5052046;28;20535;-27
2024/03/09 10:15:33;;;;;;;22.85;11.75;;;;;;;10.80;63.17;100167.53;5052469;28;20040;-27
2024/03/09 10:17:59;;;;;;;18.73;11.48;;;;;;;11.00;60.72;100165.78;5052870;28;20025;-27
2024/03/09 10:20:24;;;;;;;20.05;11.98;;;;;;;10.51;62.89;100164.84;5053205;28;20116;-27
2024/03/09 10:22:49;;;;;;;20.80;11.15;;;;;;;10.72;62.69;100165.84;5052470;28;20035;-27
2024/03/09 10:25:25;;;;;;;19.30;11.63;;;;;;;11.24;61.12;100159.16;5052746;28;20389;-27
2024/03/09 10:27:58;;;;;;;17.20;10.88;;;;;;;11.02;61.75;100169.06;5053757;28;20041;-26
2024/03/09 10:30:24;;;;;;;20.23;11.88;;;;;;;11.10;62.09;100157.44;5053395;28;20033;-27
2024/03/09 10:32:52;;;;;;;20.35;12.00;;;;;;;10.82;63.15;100157.50;5053057;28;20076;-28
2024/03/09 10:35:18;;;;;;;18.73;11.98;;;;;;;11.17;62.46;100157.50;5053103;28;20032;-29
2024/03/09 10:37:43;;;;;;;23.38;11.70;;;;;;;10.53;63.17;100156.69;5053139;28;20029;-26
2024/03/09 10:40:12;;;;;;;20.67;12.18;;;;;;;10.37;64.83;100160.44;5044529;28;20026;-28
2024/03/09 10:42:46;;;;;;;21.17;12.07;;;;;;;10.87;63.27;100155.06;5045392;28;20116;-28
2024/03/09 10:45:16;;;;;;;19.48;11.85;;;;;;;10.98;62.52;100156.38;5038856;28;20029;-28
2024/03/09 10:47:48;;;;;;;18.50;11.85;;;;;;;10.83;63.27;100151.97;5041830;28;20037;-28
2024/03/09 10:50:21;;;;;;;16.95;11.20;;;;;;;10.41;63.94;100148.38;5048822;28;20033;-28
2024/03/09 10:53:00;;;;;;;18.63;11.40;;;;;;;10.16;65.09;100139.97;5052245;28;20127;-28
2024/03/09 10:55:37;;;;;;;21.73;11.07;;;;;;;9.82;65.81;100140.66;5052168;28;20025;-29
2024/03/09 10:58:05;;;;;;;17.08;10.57;;;;;;;9.92;65.65;100146.50;5052750;28;20037;-29
2024/03/09 11:00:31;;;;;;;17.02;10.85;;;;;;;10.39;64.20;100145.09;5046901;28;20103;-27
2024/03/09 11:03:00;;;;;;;19.55;11.55;;;;;;;10.78;62.66;100140.28;5043987;28;20087;-29
2024/03/09 11:05:27;;;;;;;19.02;11.20;;;;;;;11.12;61.68;100128.78;5040640;28;20017;-28
2024/03/09 11:07:54;;;;;;;18.98;11.77;;;;;;;11.14;60.82;100132.91;5043953;28;20033;-28
2024/03/09 11:10:22;;;;;;;17.83;10.88;;;;;;;11.12;60.70;100131.47;5043584;28;20028;-27
2024/03/09 11:12:50;;;;;;;19.67;11.27;;;;;;;11.03;61.31;100127.31;5040668;28;20029;-26
2024/03/09 11:15:16;;;;;;;19.30;10.60;;;;;;;11.10;60.61;100125.47;5042165;28;20039;-28
2024/03/09 11:17:42;;;;;;;16.77;10.18;;;;;;;10.69;61.22;100136.94;5040238;28;20029;-27